Time;durP1;ratioP1;P1;durP2;ratioP2;P2;SDS_P1;SDS_P2;PMS_P1;PMS_P2;Temp;Humidity;BMP_temperature;BMP_pressure;BME280_temperature;BME280_humidity;BME280_pressure;Samples;Min_cycle;Max_cycle;Signal;HPM_P1;HPM_P2
2022/04/17 00:02:01;;;;;;;0.30;0.30;;;6.40;95.20;;;;;;4428250;32;20519;-68
2022/04/17 00:04:26;;;;;;;0.37;0.37;;;6.50;94.60;;;;;;4431025;32;20086;-68
2022/04/17 00:06:52;;;;;;;0.50;0.50;;;6.50;94.70;;;;;;4428959;32;20441;-68
2022/04/17 00:09:18;;;;;;;0.60;0.60;;;6.50;95.10;;;;;;4431276;32;20073;-69
2022/04/17 00:11:43;;;;;;;0.40;0.40;;;6.50;94.80;;;;;;4430404;32;20076;-67
2022/04/17 00:14:10;;;;;;;0.40;0.40;;;6.50;94.90;;;;;;4425486;32;20445;-68
2022/04/17 00:16:36;;;;;;;0.40;0.40;;;6.40;96.40;;;;;;4429515;32;20189;-68
2022/04/17 00:19:02;;;;;;;0.30;0.30;;;6.50;95.40;;;;;;4426700;32;20564;-67
2022/04/17 00:21:27;;;;;;;0.30;0.30;;;6.50;94.40;;;;;;4430539;32;20061;-68
2022/04/17 00:23:52;;;;;;;0.30;0.30;;;6.50;93.40;;;;;;4432709;32;20687;-68
2022/04/17 00:26:19;;;;;;;0.30;0.30;;;6.60;93.60;;;;;;4427891;32;20069;-68
2022/04/17 00:28:44;;;;;;;0.40;0.40;;;6.60;93.00;;;;;;4425171;32;20116;-69
2022/04/17 00:31:10;;;;;;;0.50;0.50;;;6.40;94.60;;;;;;4425231;32;20069;-67
2022/04/17 00:33:36;;;;;;;0.30;0.30;;;6.10;94.60;;;;;;4426699;32;20534;-68
2022/04/17 00:36:01;;;;;;;0.35;0.35;;;5.90;96.00;;;;;;4429458;32;20081;-67
2022/04/17 00:38:27;;;;;;;0.50;0.50;;;6.00;95.40;;;;;;4430516;32;20417;-69
2022/04/17 00:40:54;;;;;;;0.30;0.30;;;6.00;95.70;;;;;;4426050;32;20525;-69
2022/04/17 00:43:25;;;;;;;0.40;0.40;;;6.00;96.10;;;;;;4428078;32;20156;-68
2022/04/17 00:45:52;;;;;;;0.98;0.50;;;6.10;96.20;;;;;;4427795;32;20128;-69
2022/04/17 00:48:18;;;;;;;0.50;0.45;;;6.00;96.00;;;;;;4429171;32;20073;-69
2022/04/17 00:50:45;;;;;;;0.40;0.40;;;5.90;96.30;;;;;;4427841;32;20069;-68
2022/04/17 00:53:11;;;;;;;2.62;0.47;;;5.90;96.30;;;;;;4426926;32;20512;-69
2022/04/17 00:55:36;;;;;;;0.52;0.52;;;6.00;95.90;;;;;;4428826;32;20058;-68
2022/04/17 00:58:02;;;;;;;11.68;0.82;;;5.90;95.90;;;;;;4426642;32;20092;-69
2022/04/17 01:00:28;;;;;;;0.30;0.30;;;6.00;95.90;;;;;;4427697;32;20131;-68
2022/04/17 01:02:53;;;;;;;0.50;0.50;;;6.00;96.50;;;;;;4428702;32;20065;-69
2022/04/17 01:05:19;;;;;;;0.50;0.43;;;6.00;95.90;;;;;;4428923;32;20062;-69
2022/04/17 01:07:46;;;;;;;0.40;0.40;;;6.10;95.40;;;;;;4429178;32;20082;-69
2022/04/17 01:10:12;;;;;;;0.40;0.40;;;6.10;95.80;;;;;;4429618;32;20064;-69
2022/04/17 01:12:37;;;;;;;0.55;0.55;;;6.10;96.20;;;;;;4429970;32;20089;-69
2022/04/17 01:15:03;;;;;;;0.30;0.30;;;6.00;97.50;;;;;;4429409;32;20069;-69
2022/04/17 01:17:29;;;;;;;0.30;0.30;;;5.80;99.70;;;;;;4432062;32;20061;-69
2022/04/17 01:19:54;;;;;;;28.58;0.77;;;5.60;99.50;;;;;;4431461;32;20089;-69
2022/04/17 01:22:20;;;;;;;0.40;0.40;;;5.50;99.90;;;;;;4432138;32;20084;-69
2022/04/17 01:27:00;;;;;;;0.25;0.25;;;5.50;99.00;;;;;;4429434;32;20211;-69
2022/04/17 01:27:31;;;;;;;0.30;0.30;;;5.40;99.40;;;;;;4428001;32;20517;-69
2022/04/17 01:29:57;;;;;;;0.50;0.50;;;5.50;99.50;;;;;;4430484;32;20516;-69
2022/04/17 01:32:22;;;;;;;0.50;0.50;;;5.60;99.20;;;;;;4431111;32;20089;-69
2022/04/17 01:34:49;;;;;;;0.30;0.30;;;5.60;99.30;;;;;;4430139;32;20581;-69
2022/04/17 01:37:15;;;;;;;0.35;0.35;;;5.70;99.00;;;;;;4428506;32;20087;-69
2022/04/17 01:39:41;;;;;;;0.40;0.40;;;5.80;98.30;;;;;;4428575;32;20109;-69
2022/04/17 01:42:07;;;;;;;0.80;0.80;;;5.80;97.80;;;;;;4429281;32;20201;-68
2022/04/17 01:44:32;;;;;;;0.60;0.60;;;5.80;97.90;;;;;;4428704;32;20534;-68
2022/04/17 01:46:59;;;;;;;0.40;0.40;;;5.80;97.00;;;;;;4429238;32;20419;-69
2022/04/17 01:49:25;;;;;;;3.10;1.58;;;5.80;98.20;;;;;;4426291;32;20069;-68
2022/04/17 01:51:52;;;;;;;1.65;0.50;;;5.80;98.60;;;;;;4430186;32;20060;-69
2022/04/17 01:54:18;;;;;;;0.52;0.37;;;5.70;98.30;;;;;;4430660;32;20116;-69
2022/04/17 01:56:47;;;;;;;0.65;0.50;;;5.60;98.10;;;;;;4428719;32;20101;-67
2022/04/17 01:59:13;;;;;;;0.40;0.40;;;5.50;98.30;;;;;;4432116;32;20061;-69
2022/04/17 02:01:39;;;;;;;0.30;0.30;;;5.50;97.90;;;;;;4430186;32;20202;-69
2022/04/17 02:04:07;;;;;;;0.47;0.40;;;5.50;98.60;;;;;;4430103;32;20383;-69
2022/04/17 02:06:33;;;;;;;0.35;0.35;;;5.40;98.60;;;;;;4430474;32;20069;-69
2022/04/17 02:09:00;;;;;;;0.30;0.30;;;5.40;99.10;;;;;;4429117;32;20064;-69
2022/04/17 02:11:26;;;;;;;0.30;0.30;;;5.30;99.90;;;;;;4428221;32;20376;-68
2022/04/17 02:13:52;;;;;;;0.30;0.30;;;5.00;99.90;;;;;;4429070;32;20119;-69
2022/04/17 02:16:18;;;;;;;1.95;0.60;;;4.90;99.90;;;;;;4431059;32;20430;-69
2022/04/17 02:18:45;;;;;;;0.30;0.30;;;4.80;99.90;;;;;;4433786;32;20061;-69
2022/04/17 02:21:11;;;;;;;0.35;0.35;;;4.70;99.90;;;;;;4432015;32;20093;-69
2022/04/17 02:23:36;;;;;;;0.40;0.40;;;4.70;99.90;;;;;;4427336;32;20106;-69
2022/04/17 02:26:02;;;;;;;3.33;1.35;;;4.80;99.90;;;;;;4429840;32;20069;-69
2022/04/17 02:28:29;;;;;;;0.50;0.50;;;4.90;99.90;;;;;;4430670;32;20074;-67
2022/04/17 02:30:55;;;;;;;3.65;0.88;;;5.00;99.90;;;;;;4434759;32;20064;-69
2022/04/17 02:33:20;;;;;;;0.40;0.40;;;5.00;99.90;;;;;;4428985;32;20109;-69
2022/04/17 02:35:46;;;;;;;0.30;0.30;;;5.10;99.90;;;;;;4429022;32;20069;-69
2022/04/17 02:38:14;;;;;;;0.50;0.50;;;5.00;99.90;;;;;;4432137;32;20061;-69
2022/04/17 02:40:40;;;;;;;0.30;0.30;;;4.90;99.90;;;;;;4425771;32;20077;-69
2022/04/17 02:43:05;;;;;;;0.88;0.82;;;4.90;99.90;;;;;;4429655;32;20115;-69
2022/04/17 02:45:31;;;;;;;0.50;0.50;;;4.90;99.90;;;;;;4432411;32;20073;-69
2022/04/17 02:47:57;;;;;;;0.52;0.52;;;4.90;99.90;;;;;;4429987;32;20065;-69
2022/04/17 02:50:23;;;;;;;0.40;0.40;;;4.90;99.90;;;;;;4428940;32;20097;-68
2022/04/17 02:52:49;;;;;;;0.50;0.50;;;4.80;99.90;;;;;;4428961;32;20184;-69
2022/04/17 02:55:14;;;;;;;0.40;0.40;;;4.70;99.90;;;;;;4432384;32;20478;-68
2022/04/17 02:57:40;;;;;;;5.68;1.25;;;4.70;99.90;;;;;;4430262;32;20069;-68
2022/04/17 03:00:08;;;;;;;2.37;0.80;;;4.70;99.90;;;;;;4427729;32;20509;-68
2022/04/17 03:05:37;;;;;;;0.60;0.50;;;4.70;99.90;;;;;;4420669;32;20592;-67
2022/04/17 03:08:05;;;;;;;0.45;0.45;;;4.60;99.90;;;;;;4430647;32;20074;-69
2022/04/17 03:10:31;;;;;;;0.30;0.30;;;4.60;99.90;;;;;;4428720;32;20440;-67
2022/04/17 03:12:57;;;;;;;0.62;0.62;;;4.60;99.90;;;;;;4428183;32;20124;-68
2022/04/17 03:15:22;;;;;;;0.50;0.50;;;4.60;99.90;;;;;;4427930;32;20430;-68
2022/04/17 03:17:48;;;;;;;1.17;0.70;;;4.50;99.90;;;;;;4428807;32;20085;-68
2022/04/17 03:20:14;;;;;;;0.30;0.30;;;4.50;99.90;;;;;;4428882;32;20512;-68
2022/04/17 03:22:41;;;;;;;0.40;0.40;;;4.50;99.90;;;;;;4426692;32;20396;-68
2022/04/17 03:25:07;;;;;;;0.47;0.47;;;4.50;99.90;;;;;;4427059;32;20123;-69
2022/04/17 03:27:33;;;;;;;0.50;0.50;;;4.50;99.90;;;;;;4427564;32;20090;-68
2022/04/17 03:29:59;;;;;;;0.50;0.50;;;4.40;99.90;;;;;;4430737;32;20080;-68
2022/04/17 03:32:24;;;;;;;1.60;0.90;;;4.40;99.90;;;;;;4426962;32;20061;-68
2022/04/17 03:34:50;;;;;;;0.65;0.62;;;4.30;99.90;;;;;;4431552;32;20096;-68
2022/04/17 03:37:16;;;;;;;0.82;0.77;;;4.40;99.90;;;;;;4426428;32;20069;-68
2022/04/17 03:39:43;;;;;;;0.60;0.60;;;4.40;99.90;;;;;;4426618;32;20093;-68
2022/04/17 03:42:08;;;;;;;0.50;0.50;;;4.20;99.90;;;;;;4430245;32;20164;-68
2022/04/17 03:44:34;;;;;;;0.70;0.70;;;4.20;99.90;;;;;;4429957;32;20069;-68
2022/04/17 03:47:00;;;;;;;1.02;1.00;;;4.20;99.90;;;;;;4430502;32;20053;-68
2022/04/17 03:49:26;;;;;;;0.60;0.60;;;4.10;99.90;;;;;;4429617;32;20459;-68
2022/04/17 03:51:51;;;;;;;0.50;0.50;;;4.20;99.90;;;;;;4428021;32;20069;-68
2022/04/17 03:54:17;;;;;;;0.70;0.68;;;4.30;99.90;;;;;;4430126;32;20101;-68
2022/04/17 03:56:44;;;;;;;0.43;0.43;;;4.20;99.90;;;;;;4425564;32;20135;-69
2022/04/17 03:59:10;;;;;;;0.43;0.43;;;4.00;99.90;;;;;;4428162;32;20086;-68
2022/04/17 04:01:35;;;;;;;0.30;0.30;;;3.90;99.90;;;;;;4429252;32;20068;-68
2022/04/17 04:04:01;;;;;;;0.82;0.70;;;3.80;99.90;;;;;;4429313;32;20074;-68
2022/04/17 04:06:27;;;;;;;1.15;1.05;;;3.70;99.90;;;;;;4430560;32;20088;-68
2022/04/17 04:08:53;;;;;;;0.90;0.65;;;3.50;99.90;;;;;;4427281;32;20120;-68
2022/04/17 04:11:18;;;;;;;0.50;0.50;;;3.50;99.90;;;;;;4428011;32;20072;-68
2022/04/17 04:13:44;;;;;;;0.65;0.47;;;3.40;99.90;;;;;;4427875;32;20408;-68
2022/04/17 04:16:10;;;;;;;0.62;0.57;;;3.30;99.90;;;;;;4428697;32;20070;-68
2022/04/17 04:18:36;;;;;;;0.80;0.80;;;3.30;99.90;;;;;;4429962;32;20080;-68
2022/04/17 04:21:02;;;;;;;0.50;0.50;;;3.30;99.90;;;;;;4428103;32;20125;-68
2022/04/17 04:23:31;;;;;;;2.17;0.80;;;3.50;99.90;;;;;;4429282;32;20061;-68
2022/04/17 04:25:57;;;;;;;0.52;0.52;;;3.60;99.90;;;;;;4429945;32;20106;-68
2022/04/17 04:28:37;;;;;;;1.30;1.20;;;3.70;99.90;;;;;;4427592;32;21762;-68
2022/04/17 04:31:05;;;;;;;0.45;0.45;;;3.70;99.90;;;;;;4426037;32;20587;-68
2022/04/17 04:33:32;;;;;;;0.93;0.93;;;3.80;99.90;;;;;;4428070;32;20088;-68
2022/04/17 04:35:59;;;;;;;1.17;1.08;;;3.90;99.90;;;;;;4429484;32;20651;-68
2022/04/17 04:38:25;;;;;;;0.45;0.45;;;3.90;99.90;;;;;;4432319;32;20557;-68
2022/04/17 04:40:51;;;;;;;0.30;0.30;;;3.80;99.90;;;;;;4429526;32;20069;-69
2022/04/17 04:43:17;;;;;;;0.82;0.82;;;3.80;99.90;;;;;;4429295;32;20121;-69
2022/04/17 04:46:14;;;;;;;0.60;0.60;;;3.80;99.90;;;;;;4428821;32;20077;-69
2022/04/17 04:49:31;;;;;;;0.50;0.50;;;3.60;99.90;;;;;;4419963;32;20160;-69
2022/04/17 04:51:14;;;;;;;0.50;0.50;;;3.40;99.90;;;;;;4421718;32;20065;-69
2022/04/17 04:53:40;;;;;;;0.95;0.70;;;3.50;99.90;;;;;;4431213;32;20116;-69
2022/04/17 04:56:06;;;;;;;1.08;0.85;;;3.60;99.90;;;;;;4432226;32;20116;-69
2022/04/17 04:58:31;;;;;;;0.40;0.40;;;3.50;99.90;;;;;;4428748;32;20540;-68
2022/04/17 05:00:57;;;;;;;0.40;0.40;;;3.60;99.90;;;;;;4431759;32;20078;-69
2022/04/17 05:03:22;;;;;;;0.50;0.50;;;3.70;99.90;;;;;;4430554;32;20153;-69
2022/04/17 05:05:48;;;;;;;0.52;0.52;;;3.80;99.90;;;;;;4428638;32;20124;-69
2022/04/17 05:08:13;;;;;;;1.27;0.73;;;4.00;99.90;;;;;;4429956;32;20521;-69
2022/04/17 05:10:39;;;;;;;0.47;0.47;;;4.10;99.90;;;;;;4429251;32;20139;-69
2022/04/17 05:13:05;;;;;;;0.57;0.57;;;3.90;99.90;;;;;;4428019;32;20085;-68
2022/04/17 05:15:30;;;;;;;0.50;0.50;;;3.90;99.90;;;;;;4432330;32;20124;-69
2022/04/17 05:17:56;;;;;;;0.60;0.60;;;3.90;99.90;;;;;;4429806;32;20057;-69
2022/04/17 05:20:22;;;;;;;0.90;0.90;;;4.00;99.90;;;;;;4434490;32;20120;-69
2022/04/17 05:22:53;;;;;;;0.60;0.60;;;4.00;99.90;;;;;;4431344;32;20073;-69
2022/04/17 05:25:19;;;;;;;1.95;1.20;;;4.10;99.90;;;;;;4430138;32;20418;-69
2022/04/17 05:27:45;;;;;;;0.40;0.40;;;4.30;99.90;;;;;;4431392;32;20060;-69
2022/04/17 05:30:10;;;;;;;0.65;0.65;;;4.40;99.90;;;;;;4431148;32;20504;-69
2022/04/17 05:32:36;;;;;;;0.43;0.43;;;4.50;99.90;;;;;;4432893;32;20095;-69
2022/04/17 05:35:01;;;;;;;0.40;0.40;;;4.60;99.90;;;;;;4430908;32;20521;-69
2022/04/17 05:37:27;;;;;;;0.30;0.30;;;4.70;99.90;;;;;;4428598;32;20057;-68
2022/04/17 05:39:53;;;;;;;0.70;0.70;;;4.80;99.90;;;;;;4428897;32;20563;-68
2022/04/17 05:42:18;;;;;;;0.30;0.30;;;4.90;99.90;;;;;;4427516;32;20074;-69
2022/04/17 05:44:45;;;;;;;0.65;0.65;;;5.10;99.90;;;;;;4434572;32;20085;-68
2022/04/17 05:47:11;;;;;;;1.75;0.88;;;5.20;99.90;;;;;;4430526;32;20061;-68
2022/04/17 05:49:36;;;;;;;0.37;0.37;;;5.20;99.90;;;;;;4432231;32;20073;-68
2022/04/17 05:52:02;;;;;;;0.30;0.30;;;5.20;99.90;;;;;;4430960;32;20097;-68
2022/04/17 05:54:28;;;;;;;0.30;0.30;;;5.20;99.90;;;;;;4432304;32;20096;-68
2022/04/17 05:56:54;;;;;;;0.60;0.60;;;5.30;99.90;;;;;;4428126;32;20069;-68
2022/04/17 05:59:19;;;;;;;0.50;0.50;;;5.40;99.90;;;;;;4427305;32;20132;-68
2022/04/17 06:01:46;;;;;;;0.52;0.52;;;5.50;99.90;;;;;;4433516;32;20077;-68
2022/04/17 06:04:12;;;;;;;0.50;0.50;;;5.50;99.90;;;;;;4429369;32;20593;-68
2022/04/17 06:06:37;;;;;;;1.00;0.95;;;5.60;99.90;;;;;;4429122;32;20084;-68
2022/04/17 06:09:03;;;;;;;0.60;0.60;;;5.80;99.90;;;;;;4434719;32;20519;-68
2022/04/17 06:11:28;;;;;;;0.55;0.55;;;5.90;99.90;;;;;;4432598;32;20076;-68
2022/04/17 06:13:55;;;;;;;0.50;0.50;;;5.80;99.90;;;;;;4427418;32;20151;-67
2022/04/17 06:16:21;;;;;;;0.40;0.40;;;5.90;99.90;;;;;;4429994;32;20069;-67
2022/04/17 06:18:46;;;;;;;0.40;0.40;;;6.10;99.90;;;;;;4433009;32;20139;-67
2022/04/17 06:21:12;;;;;;;0.30;0.30;;;6.20;99.90;;;;;;4429119;32;20180;-67
2022/04/17 06:23:37;;;;;;;0.45;0.45;;;6.30;99.90;;;;;;4428349;32;20062;-69
2022/04/17 06:26:03;;;;;;;0.52;0.52;;;6.50;99.90;;;;;;4427846;32;20136;-68
2022/04/17 06:28:28;;;;;;;0.95;0.70;;;6.60;99.90;;;;;;4430131;32;20081;-68
2022/04/17 06:30:54;;;;;;;1.70;1.08;;;6.70;99.90;;;;;;4431076;32;20077;-68
2022/04/17 06:33:20;;;;;;;1.62;0.77;;;6.90;99.90;;;;;;4429474;32;20112;-68
2022/04/17 06:35:45;;;;;;;0.35;0.35;;;7.00;99.90;;;;;;4429248;32;20070;-68
2022/04/17 06:38:12;;;;;;;0.50;0.50;;;7.20;99.90;;;;;;4433759;32;20092;-68
2022/04/17 06:40:38;;;;;;;0.50;0.50;;;7.30;99.90;;;;;;4430950;32;20124;-68
2022/04/17 06:43:07;;;;;;;0.50;0.50;;;7.40;99.90;;;;;;4429340;32;20078;-68
2022/04/17 06:45:35;;;;;;;0.57;0.57;;;7.40;99.90;;;;;;4428770;32;20074;-68
2022/04/17 06:48:18;;;;;;;2.55;0.50;;;7.50;99.90;;;;;;4431492;32;20081;-68
2022/04/17 06:50:45;;;;;;;1.92;0.75;;;7.40;99.90;;;;;;4429189;32;20077;-70
2022/04/17 06:53:11;;;;;;;0.57;0.57;;;7.50;99.90;;;;;;4432121;32;20554;-68
2022/04/17 06:55:37;;;;;;;0.35;0.35;;;7.60;99.90;;;;;;4432569;32;20053;-68
2022/04/17 06:58:03;;;;;;;1.12;0.80;;;7.80;99.90;;;;;;4429712;32;20076;-68
2022/04/17 07:00:28;;;;;;;0.80;0.80;;;7.90;99.90;;;;;;4432409;32;20525;-68
2022/04/17 07:02:54;;;;;;;0.40;0.37;;;8.00;99.90;;;;;;4430173;32;20094;-68
2022/04/17 07:05:19;;;;;;;0.30;0.30;;;8.00;99.90;;;;;;4429746;32;20061;-68
2022/04/17 07:07:45;;;;;;;0.45;0.45;;;8.10;99.30;;;;;;4428829;32;20061;-70
2022/04/17 07:10:11;;;;;;;0.40;0.40;;;8.20;98.70;;;;;;4430018;32;20449;-70
2022/04/17 07:12:37;;;;;;;0.20;0.20;;;8.20;98.90;;;;;;4425842;32;20454;-70
2022/04/17 07:15:04;;;;;;;0.30;0.30;;;8.30;98.10;;;;;;4427278;32;20097;-70
2022/04/17 07:17:38;;;;;;;0.32;0.32;;;8.40;97.80;;;;;;4430267;32;20073;-70
2022/04/17 07:20:06;;;;;;;0.40;0.40;;;8.50;97.80;;;;;;4432442;32;20061;-70
2022/04/17 07:22:33;;;;;;;0.55;0.50;;;8.60;97.90;;;;;;4428665;32;20596;-69
2022/04/17 07:25:01;;;;;;;0.57;0.57;;;8.60;97.20;;;;;;4433530;32;20112;-68
2022/04/17 07:27:28;;;;;;;0.40;0.40;;;8.80;97.50;;;;;;4428328;32;20078;-68
2022/04/17 07:29:54;;;;;;;0.88;0.60;;;9.00;97.40;;;;;;4429740;32;20072;-68
2022/04/17 07:32:20;;;;;;;0.50;0.50;;;9.20;97.00;;;;;;4429307;32;20073;-69
2022/04/17 07:34:46;;;;;;;0.30;0.30;;;9.40;96.60;;;;;;4431259;32;20107;-69
2022/04/17 07:37:11;;;;;;;0.60;0.60;;;9.60;95.60;;;;;;4429697;32;98310;-68
2022/04/17 07:39:37;;;;;;;0.30;0.30;;;9.70;95.30;;;;;;4428784;32;20065;-68
2022/04/17 07:42:03;;;;;;;0.65;0.65;;;9.70;94.80;;;;;;4424886;32;20235;-68
2022/04/17 07:44:29;;;;;;;0.50;0.50;;;9.70;95.20;;;;;;4429995;32;20131;-69
2022/04/17 07:46:56;;;;;;;0.40;0.40;;;9.90;95.30;;;;;;4432604;32;20094;-68
2022/04/17 07:49:26;;;;;;;0.47;0.47;;;9.90;94.50;;;;;;4428761;32;20064;-69
2022/04/17 07:51:51;;;;;;;0.50;0.50;;;10.00;94.40;;;;;;4430141;32;20488;-68
2022/04/17 07:54:17;;;;;;;0.60;0.60;;;10.20;94.10;;;;;;4427819;32;20081;-68
2022/04/17 07:56:42;;;;;;;0.77;0.55;;;10.40;93.20;;;;;;4428965;32;20073;-68
2022/04/17 07:59:07;;;;;;;0.32;0.32;;;10.60;93.70;;;;;;4427588;32;20101;-68
2022/04/17 08:01:39;;;;;;;3.50;1.30;;;10.70;92.90;;;;;;4428075;32;20065;-69
2022/04/17 08:04:04;;;;;;;0.28;0.28;;;10.90;92.40;;;;;;4428065;32;20135;-69
2022/04/17 08:06:30;;;;;;;1.98;0.40;;;10.90;91.90;;;;;;4429648;32;20074;-69
2022/04/17 08:08:55;;;;;;;0.45;0.43;;;11.00;91.40;;;;;;4429001;32;20174;-69
2022/04/17 08:11:21;;;;;;;0.47;0.47;;;11.00;90.90;;;;;;4428473;32;20094;-69
2022/04/17 08:13:47;;;;;;;0.22;0.22;;;11.10;91.10;;;;;;4429462;32;20413;-70
2022/04/17 08:16:13;;;;;;;0.30;0.30;;;11.40;91.80;;;;;;4430942;32;20069;-69
2022/04/17 08:18:38;;;;;;;0.40;0.40;;;11.60;90.50;;;;;;4430893;32;20434;-69
2022/04/17 08:21:04;;;;;;;0.52;0.50;;;11.60;89.80;;;;;;4430081;32;20060;-69
2022/04/17 08:23:30;;;;;;;0.30;0.30;;;11.70;90.30;;;;;;4433111;32;20500;-70
2022/04/17 08:25:58;;;;;;;0.40;0.40;;;11.80;87.90;;;;;;4432388;32;20182;-69
2022/04/17 08:28:23;;;;;;;0.30;0.30;;;11.80;90.40;;;;;;4432460;32;20094;-68
2022/04/17 08:30:49;;;;;;;0.30;0.30;;;11.80;88.10;;;;;;4430978;32;20527;-68
2022/04/17 08:33:16;;;;;;;0.43;0.43;;;11.70;88.20;;;;;;4432543;32;20077;-68
2022/04/17 08:35:42;;;;;;;0.30;0.30;;;11.80;89.20;;;;;;4429571;32;20074;-69
2022/04/17 08:38:07;;;;;;;0.35;0.35;;;11.90;88.40;;;;;;4428274;32;20533;-68
2022/04/17 08:40:33;;;;;;;0.40;0.40;;;12.00;89.90;;;;;;4430293;32;20069;-69
2022/04/17 08:42:59;;;;;;;0.47;0.47;;;12.10;88.70;;;;;;4429725;32;20061;-68
2022/04/17 08:45:26;;;;;;;0.90;0.75;;;12.10;86.70;;;;;;4430959;32;20508;-68
2022/04/17 08:47:54;;;;;;;0.40;0.40;;;12.20;88.10;;;;;;4434223;32;20081;-68
2022/04/17 08:50:20;;;;;;;0.47;0.47;;;12.30;89.20;;;;;;4432912;32;20081;-70
2022/04/17 08:52:48;;;;;;;1.02;0.57;;;12.50;87.80;;;;;;4431534;32;20488;-68
2022/04/17 08:55:14;;;;;;;0.40;0.40;;;12.70;86.50;;;;;;4432311;32;20131;-68
2022/04/17 08:57:40;;;;;;;0.47;0.47;;;12.90;86.00;;;;;;4433552;32;20505;-68
2022/04/17 09:00:08;;;;;;;0.68;0.68;;;12.90;86.10;;;;;;4432627;32;20131;-69
2022/04/17 09:02:35;;;;;;;0.40;0.40;;;13.00;83.30;;;;;;4434234;32;20066;-69
2022/04/17 09:05:10;;;;;;;0.70;0.70;;;13.00;84.50;;;;;;4431699;32;20077;-69
2022/04/17 09:07:40;;;;;;;0.37;0.37;;;13.20;83.70;;;;;;4433286;32;20143;-69
2022/04/17 09:10:06;;;;;;;0.40;0.40;;;13.10;82.60;;;;;;4431468;32;20077;-69
2022/04/17 09:12:32;;;;;;;0.40;0.40;;;13.30;83.60;;;;;;4429678;32;20081;-69
2022/04/17 09:14:57;;;;;;;0.60;0.60;;;13.40;82.70;;;;;;4430778;32;20478;-69
2022/04/17 09:17:31;;;;;;;0.50;0.50;;;13.50;82.60;;;;;;4433467;32;20072;-69
2022/04/17 09:19:57;;;;;;;0.30;0.30;;;13.70;81.20;;;;;;4431688;32;20057;-69
2022/04/17 09:22:22;;;;;;;0.80;0.50;;;13.80;82.50;;;;;;4432761;32;20134;-68
2022/04/17 09:24:48;;;;;;;0.85;0.47;;;13.90;81.20;;;;;;4430600;32;20085;-69
2022/04/17 09:27:13;;;;;;;1.20;0.80;;;14.00;80.00;;;;;;4432825;32;20122;-69
2022/04/17 09:29:39;;;;;;;0.50;0.50;;;14.10;78.30;;;;;;4430728;32;20115;-69
2022/04/17 09:32:09;;;;;;;0.50;0.50;;;14.30;79.70;;;;;;4433640;32;20054;-69
2022/04/17 09:34:45;;;;;;;0.50;0.50;;;14.50;78.80;;;;;;4428789;32;20057;-68
2022/04/17 09:37:13;;;;;;;0.85;0.50;;;14.70;76.50;;;;;;4428068;32;20061;-68
2022/04/17 09:39:40;;;;;;;0.82;0.45;;;14.80;76.90;;;;;;4429425;32;20149;-68
2022/04/17 09:42:06;;;;;;;0.82;0.82;;;14.80;77.20;;;;;;4429499;32;20065;-68
2022/04/17 09:44:51;;;;;;;3.30;1.48;;;14.80;77.90;;;;;;4433548;32;20057;-68
2022/04/17 09:47:20;;;;;;;0.40;0.40;;;15.00;77.80;;;;;;4433413;32;20042;-68
2022/04/17 09:49:55;;;;;;;0.70;0.70;;;15.00;74.90;;;;;;4428559;32;20138;-68
2022/04/17 09:52:23;;;;;;;0.40;0.40;;;15.10;75.60;;;;;;4428404;32;20159;-69
2022/04/17 09:54:50;;;;;;;0.30;0.30;;;15.10;74.40;;;;;;4428970;32;20154;-70
2022/04/17 09:57:20;;;;;;;0.40;0.40;;;15.30;78.20;;;;;;4429677;32;20078;-68
2022/04/17 09:59:47;;;;;;;0.93;0.63;;;15.70;76.30;;;;;;4427786;32;20073;-69
2022/04/17 10:02:14;;;;;;;0.50;0.50;;;16.10;74.40;;;;;;4430710;32;20528;-68
2022/04/17 10:04:42;;;;;;;0.40;0.40;;;16.40;72.00;;;;;;4428067;32;20065;-69
2022/04/17 10:07:09;;;;;;;0.40;0.40;;;16.30;72.20;;;;;;4429114;32;20952;-69
2022/04/17 10:09:35;;;;;;;0.40;0.40;;;15.90;73.00;;;;;;4421680;32;20112;-67
2022/04/17 10:12:02;;;;;;;0.40;0.40;;;15.70;72.70;;;;;;4429903;32;20085;-67
2022/04/17 10:14:28;;;;;;;0.47;0.47;;;15.70;74.40;;;;;;4431101;32;20073;-69
2022/04/17 10:16:55;;;;;;;1.15;0.90;;;15.90;73.60;;;;;;4429356;32;20061;-68
2022/04/17 10:19:21;;;;;;;0.40;0.40;;;16.20;71.90;;;;;;4432848;32;20124;-69
2022/04/17 10:21:47;;;;;;;0.30;0.30;;;16.30;75.10;;;;;;4427798;32;20103;-70
2022/04/17 10:24:17;;;;;;;0.32;0.32;;;16.40;72.50;;;;;;4430602;32;20057;-70
2022/04/17 10:26:47;;;;;;;0.57;0.57;;;16.60;74.30;;;;;;4434263;32;20057;-69
2022/04/17 10:29:21;;;;;;;0.60;0.60;;;16.80;69.60;;;;;;4430587;32;20089;-68
2022/04/17 10:32:18;;;;;;;0.30;0.30;;;16.90;70.70;;;;;;4428857;32;20132;-68
2022/04/17 10:35:00;;;;;;;0.40;0.40;;;17.00;69.80;;;;;;4422368;32;20864;-68
2022/04/17 10:37:57;;;;;;;0.52;0.52;;;17.00;68.00;;;;;;4430957;32;20125;-69
2022/04/17 10:40:23;;;;;;;0.88;0.65;;;17.20;70.30;;;;;;4416091;32;20132;-69
2022/04/17 10:42:59;;;;;;;0.35;0.35;;;17.70;72.30;;;;;;4433715;32;20065;-69
2022/04/17 10:45:25;;;;;;;0.40;0.40;;;17.90;69.60;;;;;;4432992;32;21061;-69
2022/04/17 10:48:12;;;;;;;0.37;0.37;;;17.80;68.50;;;;;;4429448;32;20073;-69
2022/04/17 10:50:42;;;;;;;0.40;0.40;;;17.60;68.90;;;;;;4428102;32;20120;-70
2022/04/17 10:53:24;;;;;;;0.40;0.40;;;17.70;66.30;;;;;;4430310;32;20093;-69
2022/04/17 10:56:08;;;;;;;0.30;0.30;;;17.80;66.20;;;;;;4433024;32;20088;-69
2022/04/17 10:58:36;;;;;;;0.57;0.55;;;18.00;66.10;;;;;;4430702;32;20080;-69
2022/04/17 11:01:01;;;;;;;0.30;0.30;;;18.20;66.10;;;;;;4430223;32;20060;-68
2022/04/17 11:03:27;;;;;;;0.70;0.62;;;17.90;65.00;;;;;;4429582;32;20065;-68
2022/04/17 11:06:09;;;;;;;0.30;0.30;;;17.70;64.20;;;;;;4430110;32;20090;-68
2022/04/17 11:08:56;;;;;;;0.40;0.40;;;17.30;66.40;;;;;;4429374;32;20065;-68
2022/04/17 11:11:21;;;;;;;0.40;0.40;;;17.80;67.10;;;;;;4430346;32;21147;-68
2022/04/17 11:14:10;;;;;;;0.85;0.73;;;18.60;64.00;;;;;;4431361;32;20579;-67
2022/04/17 11:16:59;;;;;;;0.50;0.50;;;19.00;63.90;;;;;;4429538;32;20069;-70
2022/04/17 11:19:27;;;;;;;0.30;0.30;;;19.30;62.70;;;;;;4426840;32;20467;-68
2022/04/17 11:21:55;;;;;;;0.35;0.35;;;19.30;61.50;;;;;;4427988;32;20069;-69
2022/04/17 11:24:22;;;;;;;0.30;0.30;;;19.60;61.60;;;;;;4428702;32;20120;-69
2022/04/17 11:26:57;;;;;;;0.25;0.25;;;19.80;60.10;;;;;;4430263;32;20097;-69
2022/04/17 11:29:47;;;;;;;0.30;0.30;;;20.00;59.80;;;;;;4429969;32;20085;-69
2022/04/17 11:32:35;;;;;;;0.40;0.40;;;19.90;58.70;;;;;;4429862;32;21314;-69
2022/04/17 11:35:02;;;;;;;10.23;0.37;;;20.10;60.40;;;;;;4424137;32;20504;-69
2022/04/17 11:37:30;;;;;;;0.40;0.40;;;20.00;59.10;;;;;;4430944;32;20085;-69
2022/04/17 11:39:58;;;;;;;0.20;0.20;;;20.00;58.90;;;;;;4428784;32;20077;-69
2022/04/17 11:42:28;;;;;;;0.47;0.30;;;20.20;60.20;;;;;;4428771;32;21337;-69
2022/04/17 11:44:59;;;;;;;0.30;0.30;;;20.30;58.30;;;;;;4429509;32;20061;-70
2022/04/17 11:47:25;;;;;;;0.30;0.30;;;21.10;58.50;;;;;;4429435;32;20747;-69
2022/04/17 11:49:50;;;;;;;1.25;0.73;;;21.00;56.50;;;;;;4430128;32;20068;-69
2022/04/17 11:52:18;;;;;;;0.40;0.40;;;20.90;55.70;;;;;;4430697;32;20111;-69
2022/04/17 11:54:45;;;;;;;0.57;0.57;;;20.80;58.70;;;;;;4425538;32;20387;-69
2022/04/17 11:57:12;;;;;;;1.48;0.68;;;21.00;54.80;;;;;;4430898;32;20073;-69
2022/04/17 11:59:46;;;;;;;0.20;0.20;;;21.60;53.40;;;;;;4430707;32;20085;-69
2022/04/17 12:02:16;;;;;;;0.30;0.30;;;21.90;55.10;;;;;;4431624;32;20089;-69
2022/04/17 12:04:43;;;;;;;0.30;0.30;;;21.60;54.80;;;;;;4427170;32;20124;-69
2022/04/17 12:07:10;;;;;;;1.75;0.82;;;21.50;53.50;;;;;;4428391;32;20077;-69
2022/04/17 12:09:35;;;;;;;0.30;0.30;;;21.70;52.80;;;;;;4425864;32;20109;-69
2022/04/17 12:12:01;;;;;;;0.37;0.32;;;21.60;52.50;;;;;;4428128;32;20073;-69
2022/04/17 12:14:28;;;;;;;0.13;0.13;;;21.50;52.50;;;;;;4429072;32;20065;-68
2022/04/17 12:16:55;;;;;;;0.15;0.15;;;21.80;51.90;;;;;;4431794;32;20191;-69
2022/04/17 12:19:20;;;;;;;0.30;0.30;;;22.20;52.30;;;;;;4430324;32;20517;-68
2022/04/17 12:21:47;;;;;;;0.10;0.10;;;22.50;51.00;;;;;;4426635;32;20082;-69
2022/04/17 12:24:13;;;;;;;0.15;0.15;;;22.50;51.50;;;;;;4427543;32;20480;-69
2022/04/17 12:26:39;;;;;;;0.00;0.00;;;23.00;51.90;;;;;;4428967;32;20138;-69
2022/04/17 12:29:06;;;;;;;0.80;0.20;;;22.90;51.60;;;;;;4426571;32;20517;-69
2022/04/17 12:31:31;;;;;;;0.30;0.30;;;23.00;50.50;;;;;;4430895;32;20076;-69
2022/04/17 12:34:19;;;;;;;0.20;0.20;;;22.50;50.80;;;;;;4427947;32;20497;-69
2022/04/17 12:36:46;;;;;;;0.20;0.20;;;23.40;50.80;;;;;;4417928;32;20161;-69
2022/04/17 12:39:12;;;;;;;0.17;0.10;;;23.00;51.50;;;;;;4415146;32;20085;-68
2022/04/17 12:41:40;;;;;;;0.20;0.20;;;22.90;50.40;;;;;;4417796;32;20438;-69
2022/04/17 12:44:06;;;;;;;0.20;0.20;;;22.70;50.00;;;;;;4412223;32;20070;-69
2022/04/17 12:46:32;;;;;;;0.20;0.20;;;22.90;51.10;;;;;;4414193;32;20679;-69
2022/04/17 12:49:08;;;;;;;0.30;0.30;;;23.30;48.50;;;;;;4417337;32;21312;-69
2022/04/17 12:51:34;;;;;;;0.25;0.10;;;23.30;49.70;;;;;;4411051;32;20085;-68
2022/04/17 12:54:02;;;;;;;3.10;1.10;;;23.20;49.40;;;;;;4414446;32;20066;-69
2022/04/17 12:56:28;;;;;;;0.22;0.15;;;23.50;49.20;;;;;;4409169;32;20131;-69
2022/04/17 12:58:56;;;;;;;0.20;0.20;;;23.40;49.60;;;;;;4411572;32;20549;-69